createdAt,value
2023-07-08T00:02:34.585Z,20.71
2023-07-08T00:05:07.469Z,20.63
2023-07-08T00:07:38.511Z,20.58
2023-07-08T00:10:45.908Z,20.53
2023-07-08T00:13:27.719Z,20.46
2023-07-08T00:16:20.732Z,20.41
2023-07-08T00:18:50.743Z,20.37
2023-07-08T00:21:31.785Z,20.33
2023-07-08T00:24:07.197Z,20.29
2023-07-08T00:26:37.854Z,20.25
2023-07-08T00:29:13.076Z,20.21
2023-07-08T00:31:45.765Z,20.17
2023-07-08T00:34:19.564Z,20.13
2023-07-08T00:37:09.652Z,20.11
2023-07-08T00:39:42.542Z,20.09
2023-07-08T00:42:21.024Z,20.08
2023-07-08T00:44:54.153Z,20.06
2023-07-08T00:47:24.376Z,20.07
2023-07-08T00:50:07.371Z,20.04
2023-07-08T00:52:41.741Z,20.02
2023-07-08T00:55:15.630Z,19.98
2023-07-08T00:57:50.868Z,19.97
2023-07-08T01:00:23.651Z,19.96
2023-07-08T01:02:54.384Z,19.96
2023-07-08T01:05:27.074Z,19.95
2023-07-08T01:07:57.511Z,19.93
2023-07-08T01:10:39.601Z,19.94
2023-07-08T01:13:13.619Z,19.94
2023-07-08T01:15:43.830Z,19.93
2023-07-08T01:18:32.178Z,19.92
2023-07-08T01:21:07.837Z,19.90
2023-07-08T01:23:40.825Z,19.88
2023-07-08T01:26:09.300Z,19.85
2023-07-08T01:28:40.049Z,19.83
2023-07-08T01:31:10.772Z,19.81
2023-07-08T01:33:52.680Z,19.79
2023-07-08T01:36:30.675Z,19.77
2023-07-08T01:38:58.648Z,19.75
2023-07-08T01:41:26.508Z,19.74
2023-07-08T01:43:54.376Z,19.72
2023-07-08T01:46:29.616Z,19.70
2023-07-08T01:49:01.295Z,19.69
2023-07-08T01:51:35.388Z,19.69
2023-07-08T01:54:08.502Z,19.69
2023-07-08T01:56:53.243Z,19.69
2023-07-08T01:59:27.045Z,19.70
2023-07-08T02:01:58.898Z,19.69
2023-07-08T02:04:31.767Z,19.66
2023-07-08T02:07:12.363Z,19.67
2023-07-08T02:09:46.483Z,19.67
2023-07-08T02:12:17.625Z,19.67
2023-07-08T02:14:54.063Z,19.67
2023-07-08T02:17:21.978Z,19.65
2023-07-08T02:19:51.988Z,19.64
2023-07-08T02:22:19.845Z,19.66
2023-07-08T02:24:51.626Z,19.67
2023-07-08T02:27:19.620Z,19.67
2023-07-08T02:29:49.699Z,19.69
2023-07-08T02:32:29.451Z,19.71
2023-07-08T02:35:00.693Z,19.74
2023-07-08T02:37:33.901Z,19.77
2023-07-08T02:40:01.988Z,19.80
2023-07-08T02:42:36.684Z,19.83
2023-07-08T02:45:10.870Z,19.85
2023-07-08T02:47:41.216Z,19.88
2023-07-08T02:50:14.535Z,19.91
2023-07-08T02:52:42.499Z,19.93
2023-07-08T02:55:18.566Z,19.96
2023-07-08T02:57:48.594Z,20.00
2023-07-08T03:00:19.939Z,20.05
2023-07-08T03:02:52.757Z,20.11
2023-07-08T03:05:24.260Z,20.18
2023-07-08T03:07:59.222Z,20.26
2023-07-08T03:10:29.422Z,20.31
2023-07-08T03:12:57.184Z,20.34
2023-07-08T03:15:30.504Z,20.38
2023-07-08T03:18:06.892Z,20.40
2023-07-08T03:20:35.027Z,20.42
2023-07-08T03:23:03.318Z,20.43
2023-07-08T03:25:39.981Z,20.47
2023-07-08T03:28:27.505Z,20.52
2023-07-08T03:31:00.173Z,20.58
2023-07-08T03:33:36.345Z,20.64
2023-07-08T03:36:06.990Z,20.73
2023-07-08T03:38:34.849Z,20.84
2023-07-08T03:41:03.948Z,20.97
2023-07-08T03:43:35.003Z,21.15
2023-07-08T03:46:05.806Z,21.33
2023-07-08T03:48:38.714Z,21.52
2023-07-08T03:51:46.840Z,21.66
2023-07-08T03:54:20.116Z,21.75
2023-07-08T03:56:55.702Z,21.88
2023-07-08T03:59:25.285Z,22.12
2023-07-08T04:01:57.414Z,22.35
2023-07-08T04:04:36.149Z,22.39
2023-07-08T04:07:05.728Z,22.62
2023-07-08T04:09:33.618Z,23.07
2023-07-08T04:12:07.361Z,23.39
2023-07-08T04:14:35.323Z,23.47
2023-07-08T04:17:06.332Z,23.67
2023-07-08T04:19:34.548Z,23.94
2023-07-08T04:22:07.631Z,24.07
2023-07-08T04:24:37.752Z,24.08
2023-07-08T04:27:06.115Z,24.10
2023-07-08T04:29:33.909Z,24.26
2023-07-08T04:32:07.198Z,24.37
2023-07-08T04:34:35.276Z,24.49
2023-07-08T04:37:03.195Z,24.57
2023-07-08T04:39:41.248Z,24.71
2023-07-08T04:42:24.895Z,24.84
2023-07-08T04:44:58.608Z,24.90
2023-07-08T04:47:32.004Z,24.82
2023-07-08T04:49:59.958Z,24.56
2023-07-08T04:52:32.747Z,24.15
2023-07-08T04:55:05.428Z,23.82
2023-07-08T04:57:33.225Z,23.56
2023-07-08T05:00:01.053Z,23.36
2023-07-08T05:02:31.693Z,23.25
2023-07-08T05:05:04.772Z,23.23
2023-07-08T05:07:37.584Z,23.20
2023-07-08T05:10:15.884Z,23.22
2023-07-08T05:12:45.788Z,23.54
2023-07-08T05:15:14.270Z,24.02
2023-07-08T05:17:45.738Z,24.37
2023-07-08T05:20:16.164Z,24.39
2023-07-08T05:22:48.006Z,24.31
2023-07-08T05:25:23.772Z,24.19
2023-07-08T05:27:51.632Z,24.10
2023-07-08T05:30:24.517Z,24.08
2023-07-08T05:32:57.493Z,24.02
2023-07-08T05:35:30.810Z,23.98
2023-07-08T05:38:13.647Z,23.95
2023-07-08T05:40:47.451Z,23.97
2023-07-08T05:43:20.518Z,23.94
2023-07-08T05:46:05.842Z,23.93
2023-07-08T05:48:38.940Z,23.87
2023-07-08T05:51:06.878Z,23.82
2023-07-08T05:53:34.722Z,23.80
2023-07-08T05:56:03.859Z,23.90
2023-07-08T05:58:31.791Z,24.15
2023-07-08T06:01:04.689Z,24.45
2023-07-08T06:03:38.567Z,24.69
2023-07-08T06:06:09.243Z,24.81
2023-07-08T06:08:38.533Z,24.90
2023-07-08T06:11:06.388Z,24.96
2023-07-08T06:13:34.363Z,25.03
2023-07-08T06:16:05.582Z,24.98
2023-07-08T06:18:33.584Z,24.82
2023-07-08T06:21:06.044Z,24.70
2023-07-08T06:23:37.117Z,24.60
2023-07-08T06:26:04.957Z,24.52
2023-07-08T06:28:32.732Z,24.48
2023-07-08T06:31:04.928Z,24.46
2023-07-08T06:33:35.635Z,24.48
2023-07-08T06:36:08.313Z,24.55
2023-07-08T06:38:44.470Z,24.75
2023-07-08T06:41:12.445Z,24.99
2023-07-08T06:43:40.314Z,25.17
2023-07-08T06:46:26.072Z,25.37
2023-07-08T06:48:58.899Z,25.70
2023-07-08T06:51:31.673Z,25.97
2023-07-08T06:54:07.157Z,26.24
2023-07-08T06:56:48.088Z,26.48
2023-07-08T06:59:23.129Z,26.52
2023-07-08T07:01:54.913Z,26.53
2023-07-08T07:04:23.074Z,26.58
2023-07-08T07:06:56.250Z,26.55
2023-07-08T07:09:30.945Z,26.37
2023-07-08T07:11:59.155Z,26.19
2023-07-08T07:17:08.881Z,26.17
2023-07-08T07:19:50.101Z,26.31
2023-07-08T07:22:18.074Z,26.55
2023-07-08T07:24:46.139Z,26.68
2023-07-08T07:27:14.011Z,26.80
2023-07-08T07:30:00.944Z,26.85
2023-07-08T07:32:31.008Z,26.85
2023-07-08T07:35:04.341Z,26.83
2023-07-08T07:37:37.225Z,26.79
2023-07-08T07:40:08.503Z,26.81
2023-07-08T07:42:45.768Z,26.89
2023-07-08T07:45:14.367Z,26.98
2023-07-08T07:47:50.058Z,27.11
2023-07-08T07:50:49.306Z,27.30
2023-07-08T07:53:17.288Z,27.20
2023-07-08T07:55:45.464Z,27.09
2023-07-08T07:58:18.237Z,26.96
2023-07-08T08:00:51.144Z,26.83
2023-07-08T08:03:25.475Z,26.90
2023-07-08T08:05:53.346Z,27.16
2023-07-08T08:08:22.113Z,27.24
2023-07-08T08:10:53.246Z,27.23
2023-07-08T08:13:21.435Z,27.13
2023-07-08T08:15:49.594Z,26.99
2023-07-08T08:18:22.586Z,26.88
2023-07-08T08:20:52.873Z,26.88
2023-07-08T08:23:20.776Z,26.95
2023-07-08T08:25:53.682Z,27.11
2023-07-08T08:28:26.483Z,27.29
2023-07-08T08:30:57.314Z,27.49
2023-07-08T08:33:41.122Z,27.68
2023-07-08T08:36:08.995Z,27.70
2023-07-08T08:38:39.838Z,27.91
2023-07-08T08:41:15.378Z,28.20
2023-07-08T08:43:46.915Z,28.39
2023-07-08T08:46:30.603Z,28.47
2023-07-08T08:49:16.132Z,28.48
2023-07-08T08:51:44.039Z,28.61
2023-07-08T08:54:12.023Z,28.63
2023-07-08T08:56:52.166Z,28.68
2023-07-08T08:59:46.539Z,28.81
2023-07-08T09:02:24.143Z,29.05
2023-07-08T09:04:52.118Z,29.33
2023-07-08T09:07:21.120Z,29.39
2023-07-08T09:09:54.414Z,29.34
2023-07-08T09:12:25.659Z,29.35
2023-07-08T09:14:54.837Z,29.31
2023-07-08T09:17:37.106Z,29.48
2023-07-08T09:20:21.197Z,29.74
2023-07-08T09:23:02.706Z,30.01
2023-07-08T09:25:43.758Z,30.16
2023-07-08T09:28:17.217Z,30.25
2023-07-08T09:30:49.423Z,30.33
2023-07-08T09:33:53.146Z,30.37
2023-07-08T09:36:26.487Z,30.36
2023-07-08T09:38:59.218Z,30.31
2023-07-08T09:41:37.988Z,30.28
2023-07-08T09:44:32.129Z,30.31
2023-07-08T09:47:03.152Z,30.19
2023-07-08T09:49:35.189Z,30.09
2023-07-08T09:52:11.392Z,30.29
2023-07-08T09:54:46.266Z,30.61
2023-07-08T09:57:19.625Z,30.87
2023-07-08T10:00:17.305Z,31.08
2023-07-08T10:02:50.003Z,31.21
2023-07-08T10:05:21.142Z,31.19
2023-07-08T10:07:51.752Z,31.18
2023-07-08T10:10:25.211Z,31.05
2023-07-08T10:13:37.092Z,30.98
2023-07-08T10:16:16.156Z,30.90
2023-07-08T10:18:49.480Z,30.89
2023-07-08T10:21:41.119Z,31.06
2023-07-08T10:24:32.071Z,31.27
2023-07-08T10:27:20.462Z,31.43
2023-07-08T10:30:21.822Z,31.41
2023-07-08T10:33:39.555Z,31.62
2023-07-08T10:36:36.488Z,31.85
2023-07-08T10:39:33.763Z,31.95
2023-07-08T10:42:32.293Z,32.04
2023-07-08T10:45:03.603Z,32.18
2023-07-08T10:47:40.544Z,32.41
2023-07-08T10:50:45.356Z,32.49
2023-07-08T10:53:29.659Z,32.38
2023-07-08T10:56:26.654Z,32.21
2023-07-08T10:59:33.191Z,32.26
2023-07-08T11:02:13.047Z,32.40
2023-07-08T11:04:51.246Z,32.32
2023-07-08T11:07:42.575Z,32.27
2023-07-08T11:10:25.307Z,32.38
2023-07-08T11:13:24.930Z,32.56
2023-07-08T11:16:02.764Z,32.59
2023-07-08T11:18:52.697Z,32.71
2023-07-08T11:21:32.947Z,32.95
2023-07-08T11:24:41.754Z,33.07
2023-07-08T11:27:28.181Z,33.16
2023-07-08T11:30:09.832Z,33.10
2023-07-08T11:32:52.616Z,33.09
2023-07-08T11:35:33.566Z,32.99
2023-07-08T11:38:20.385Z,32.84
2023-07-08T11:41:09.444Z,32.71
2023-07-08T11:44:12.632Z,32.74
2023-07-08T11:49:25.163Z,32.63
2023-07-08T11:52:09.410Z,32.60
2023-07-08T11:54:47.243Z,32.77
2023-07-08T11:57:19.800Z,33.02
2023-07-08T12:00:11.797Z,33.24
2023-07-08T12:02:55.103Z,33.44
2023-07-08T12:05:43.817Z,33.54
2023-07-08T12:08:19.368Z,33.55
2023-07-08T12:10:59.227Z,33.66
2023-07-08T12:13:32.361Z,33.73
2023-07-08T12:16:11.871Z,33.82
2023-07-08T12:18:40.637Z,33.95
2023-07-08T12:21:12.240Z,34.04
2023-07-08T12:23:46.492Z,33.98
2023-07-08T12:26:19.709Z,33.76
2023-07-08T12:29:12.048Z,33.77
2023-07-08T12:31:47.825Z,33.78
2023-07-08T12:34:19.084Z,33.91
2023-07-08T12:36:49.576Z,33.90
2023-07-08T12:39:17.978Z,33.90
2023-07-08T12:41:51.058Z,33.91
2023-07-08T12:44:23.182Z,33.89
2023-07-08T12:46:57.127Z,33.87
2023-07-08T12:49:42.792Z,33.67
2023-07-08T12:52:21.393Z,33.41
2023-07-08T12:54:52.371Z,33.06
2023-07-08T12:57:20.855Z,32.71
2023-07-08T12:59:53.201Z,32.34
2023-07-08T13:02:26.071Z,32.01
2023-07-08T13:05:00.735Z,31.61
2023-07-08T13:07:44.027Z,31.25
2023-07-08T13:10:22.461Z,30.87
2023-07-08T13:12:53.963Z,30.29
2023-07-08T18:51:24.914Z,20.14
2023-07-08T18:53:52.692Z,20.17
2023-07-08T18:56:20.208Z,20.21
2023-07-08T18:58:51.589Z,20.25
2023-07-08T19:01:22.539Z,20.28
2023-07-08T19:03:50.190Z,20.32
2023-07-08T19:06:18.176Z,20.35
2023-07-08T19:08:48.593Z,20.40
2023-07-08T19:11:21.476Z,20.43
2023-07-08T19:13:49.695Z,20.46
2023-07-08T19:16:18.910Z,20.48
2023-07-08T19:18:51.360Z,20.49
2023-07-08T19:21:26.177Z,20.49
2023-07-08T19:23:57.114Z,20.48
2023-07-08T19:26:25.319Z,20.47
2023-07-08T19:28:54.063Z,20.46
2023-07-08T19:31:33.440Z,20.48
2023-07-08T19:34:03.938Z,20.50
2023-07-08T19:36:37.443Z,20.53
2023-07-08T19:39:13.339Z,20.59
2023-07-08T19:41:41.183Z,20.67
2023-07-08T19:44:09.967Z,20.74
2023-07-08T19:47:04.096Z,20.82
2023-07-08T19:49:38.665Z,20.91
2023-07-08T19:52:06.623Z,20.97
2023-07-08T19:54:34.599Z,21.02
2023-07-08T19:57:11.370Z,21.05
2023-07-08T19:59:46.303Z,21.10
2023-07-08T20:02:18.626Z,21.12
2023-07-08T20:04:51.562Z,21.13
2023-07-08T20:07:19.709Z,21.15
2023-07-08T20:09:53.249Z,21.15
2023-07-08T20:12:28.788Z,21.16
2023-07-08T20:14:59.226Z,21.17
2023-07-08T20:17:34.793Z,21.17
2023-07-08T20:20:02.328Z,21.15
2023-07-08T20:22:35.786Z,21.14
2023-07-08T20:25:07.497Z,21.11
2023-07-08T20:27:40.248Z,21.07
2023-07-08T20:30:42.435Z,21.06
2023-07-08T20:33:15.129Z,21.04
2023-07-08T20:35:42.886Z,21.04
2023-07-08T20:38:18.749Z,21.04
2023-07-08T20:40:53.782Z,21.06
2023-07-08T20:43:24.220Z,21.07
2023-07-08T20:46:26.210Z,21.08
2023-07-08T20:49:00.305Z,21.08
2023-07-08T20:51:33.787Z,21.07
2023-07-08T20:54:25.528Z,21.06
2023-07-08T20:56:59.730Z,21.02
2023-07-08T20:59:32.205Z,20.97
2023-07-08T21:02:27.335Z,20.93
2023-07-08T21:04:59.998Z,20.88
2023-07-08T21:07:35.335Z,20.84
2023-07-08T21:10:03.715Z,20.80
2023-07-08T21:12:37.936Z,20.78
2023-07-08T21:15:08.875Z,20.76
2023-07-08T21:17:43.374Z,20.74
2023-07-08T21:20:33.076Z,20.71
2023-07-08T21:23:40.570Z,20.67
2023-07-08T21:26:24.599Z,20.65
2023-07-08T21:29:17.700Z,20.61
2023-07-08T21:32:01.834Z,20.58
2023-07-08T21:34:38.605Z,20.54
2023-07-08T21:37:10.057Z,20.50
2023-07-08T21:39:47.858Z,20.45
2023-07-08T21:42:31.727Z,20.41
2023-07-08T21:45:04.584Z,20.36
2023-07-08T21:47:56.497Z,20.32
2023-07-08T21:50:30.656Z,20.27
2023-07-08T21:53:03.637Z,20.23
2023-07-08T21:55:45.209Z,20.19
2023-07-08T21:58:18.821Z,20.15
2023-07-08T22:00:56.360Z,20.12
2023-07-08T22:03:41.447Z,20.08
2023-07-08T22:06:27.176Z,20.03
2023-07-08T22:09:02.919Z,20.00
2023-07-08T22:11:45.254Z,19.98
2023-07-08T22:14:28.455Z,19.94
2023-07-08T22:17:10.809Z,19.91
2023-07-08T22:19:47.102Z,19.87
2023-07-08T22:22:19.501Z,19.83
2023-07-08T22:24:52.997Z,19.78
2023-07-08T22:27:34.918Z,19.73
2023-07-08T22:30:16.914Z,19.70
2023-07-08T22:33:06.252Z,19.67
2023-07-08T22:35:55.758Z,19.64
2023-07-08T22:38:37.156Z,19.61
2023-07-08T22:41:11.148Z,19.57
2023-07-08T22:43:39.634Z,19.54
2023-07-08T22:46:12.457Z,19.50
2023-07-08T22:48:57.893Z,19.47
2023-07-08T22:51:40.916Z,19.45
2023-07-08T22:54:11.577Z,19.44
2023-07-08T22:56:46.177Z,19.41
2023-07-08T22:59:18.465Z,19.39
2023-07-08T23:01:48.160Z,19.38
2023-07-08T23:04:16.286Z,19.37
2023-07-08T23:06:48.913Z,19.37
2023-07-08T23:09:22.311Z,19.36
2023-07-08T23:12:06.980Z,19.35
2023-07-08T23:14:54.808Z,19.32
2023-07-08T23:17:29.798Z,19.28
2023-07-08T23:20:04.983Z,19.23
2023-07-08T23:22:40.946Z,19.16
2023-07-08T23:25:13.930Z,19.09
2023-07-08T23:27:55.745Z,19.03
2023-07-08T23:30:43.364Z,18.99
2023-07-08T23:33:17.379Z,18.94
2023-07-08T23:35:57.738Z,18.92
2023-07-08T23:38:31.230Z,18.91
2023-07-08T23:41:02.289Z,18.90
2023-07-08T23:43:30.671Z,18.87
2023-07-08T23:45:59.075Z,18.87
2023-07-08T23:48:29.205Z,18.85
2023-07-08T23:50:56.407Z,18.85
2023-07-08T23:53:26.021Z,18.84
2023-07-08T23:55:58.383Z,18.83
2023-07-08T23:58:30.981Z,18.82
